sensor_id;sensor_type;location;lat;lon;timestamp;temperature;humidity
41668;DHT22;27356;50.920;5.350;2024-01-15T00:00:39;2.40;99.90
41668;DHT22;27356;50.920;5.350;2024-01-15T00:03:05;2.30;99.90
41668;DHT22;27356;50.920;5.350;2024-01-15T00:05:31;2.30;99.90
41668;DHT22;27356;50.920;5.350;2024-01-15T00:07:57;2.20;99.90
41668;DHT22;27356;50.920;5.350;2024-01-15T00:10:23;2.20;99.90
41668;DHT22;27356;50.920;5.350;2024-01-15T00:12:49;2.20;99.90
41668;DHT22;27356;50.920;5.350;2024-01-15T00:15:15;2.20;99.90
41668;DHT22;27356;50.920;5.350;2024-01-15T00:17:41;2.20;99.90
41668;DHT22;27356;50.920;5.350;2024-01-15T00:20:07;2.10;99.90
41668;DHT22;27356;50.920;5.350;2024-01-15T00:22:33;2.10;99.90
41668;DHT22;27356;50.920;5.350;2024-01-15T00:25:01;2.10;99.90
41668;DHT22;27356;50.920;5.350;2024-01-15T00:27:27;2.10;99.90
41668;DHT22;27356;50.920;5.350;2024-01-15T00:29:53;2.20;99.90
41668;DHT22;27356;50.920;5.350;2024-01-15T00:32:20;2.20;99.90
41668;DHT22;27356;50.920;5.350;2024-01-15T00:34:46;2.10;99.90
41668;DHT22;27356;50.920;5.350;2024-01-15T00:37:12;2.00;99.90
41668;DHT22;27356;50.920;5.350;2024-01-15T00:39:38;1.80;99.90
41668;DHT22;27356;50.920;5.350;2024-01-15T00:42:04;1.80;99.90
41668;DHT22;27356;50.920;5.350;2024-01-15T00:44:30;1.80;99.90
41668;DHT22;27356;50.920;5.350;2024-01-15T00:46:56;1.70;99.90
41668;DHT22;27356;50.920;5.350;2024-01-15T00:49:22;1.60;99.90
41668;DHT22;27356;50.920;5.350;2024-01-15T00:51:48;1.70;99.90
41668;DHT22;27356;50.920;5.350;2024-01-15T00:54:13;1.70;99.90
41668;DHT22;27356;50.920;5.350;2024-01-15T00:56:39;1.70;99.90
41668;DHT22;27356;50.920;5.350;2024-01-15T00:59:05;1.70;99.90
41668;DHT22;27356;50.920;5.350;2024-01-15T01:01:31;1.70;99.90
41668;DHT22;27356;50.920;5.350;2024-01-15T01:03:57;1.60;99.90
41668;DHT22;27356;50.920;5.350;2024-01-15T01:06:23;1.60;99.90
41668;DHT22;27356;50.920;5.350;2024-01-15T01:08:49;1.80;99.90
41668;DHT22;27356;50.920;5.350;2024-01-15T01:11:15;1.80;99.90
41668;DHT22;27356;50.920;5.350;2024-01-15T01:13:41;1.70;99.90
41668;DHT22;27356;50.920;5.350;2024-01-15T01:16:07;1.60;99.90
41668;DHT22;27356;50.920;5.350;2024-01-15T01:18:34;1.70;99.90
41668;DHT22;27356;50.920;5.350;2024-01-15T01:21:00;1.80;99.90
41668;DHT22;27356;50.920;5.350;2024-01-15T01:23:26;1.80;99.90
41668;DHT22;27356;50.920;5.350;2024-01-15T01:25:52;1.90;99.90
41668;DHT22;27356;50.920;5.350;2024-01-15T01:28:17;1.70;99.90
41668;DHT22;27356;50.920;5.350;2024-01-15T01:30:43;1.80;99.90
41668;DHT22;27356;50.920;5.350;2024-01-15T01:33:09;1.80;99.90
41668;DHT22;27356;50.920;5.350;2024-01-15T01:35:35;1.70;99.90
41668;DHT22;27356;50.920;5.350;2024-01-15T01:38:01;1.70;99.90
41668;DHT22;27356;50.920;5.350;2024-01-15T01:40:27;1.80;99.90
41668;DHT22;27356;50.920;5.350;2024-01-15T01:42:53;1.90;99.90
41668;DHT22;27356;50.920;5.350;2024-01-15T01:45:19;1.80;99.90
41668;DHT22;27356;50.920;5.350;2024-01-15T01:47:45;1.70;99.90
41668;DHT22;27356;50.920;5.350;2024-01-15T01:50:11;1.70;99.90
41668;DHT22;27356;50.920;5.350;2024-01-15T01:52:38;1.80;99.90
41668;DHT22;27356;50.920;5.350;2024-01-15T01:55:05;1.80;99.90
41668;DHT22;27356;50.920;5.350;2024-01-15T01:57:33;1.90;99.90
41668;DHT22;27356;50.920;5.350;2024-01-15T02:00:00;1.80;99.90
41668;DHT22;27356;50.920;5.350;2024-01-15T02:02:26;1.90;99.90
41668;DHT22;27356;50.920;5.350;2024-01-15T02:04:52;1.80;99.90
41668;DHT22;27356;50.920;5.350;2024-01-15T02:07:18;1.60;99.90
41668;DHT22;27356;50.920;5.350;2024-01-15T02:09:47;1.70;99.90
41668;DHT22;27356;50.920;5.350;2024-01-15T02:12:13;1.80;99.90
41668;DHT22;27356;50.920;5.350;2024-01-15T02:14:39;1.90;99.90
41668;DHT22;27356;50.920;5.350;2024-01-15T02:17:05;1.90;99.90
41668;DHT22;27356;50.920;5.350;2024-01-15T02:19:31;1.90;99.90
41668;DHT22;27356;50.920;5.350;2024-01-15T02:21:57;1.80;99.90
41668;DHT22;27356;50.920;5.350;2024-01-15T02:24:23;2.00;99.90
41668;DHT22;27356;50.920;5.350;2024-01-15T02:26:49;2.10;99.90
41668;DHT22;27356;50.920;5.350;2024-01-15T02:29:15;2.00;99.90
41668;DHT22;27356;50.920;5.350;2024-01-15T02:31:41;2.10;99.90
41668;DHT22;27356;50.920;5.350;2024-01-15T02:34:07;2.20;99.90
41668;DHT22;27356;50.920;5.350;2024-01-15T02:36:33;2.10;99.90
41668;DHT22;27356;50.920;5.350;2024-01-15T02:38:59;2.20;99.90
41668;DHT22;27356;50.920;5.350;2024-01-15T02:41:25;2.30;99.90
41668;DHT22;27356;50.920;5.350;2024-01-15T02:43:51;2.00;99.90
41668;DHT22;27356;50.920;5.350;2024-01-15T02:46:17;1.90;99.90
41668;DHT22;27356;50.920;5.350;2024-01-15T02:48:43;2.00;99.90
41668;DHT22;27356;50.920;5.350;2024-01-15T02:51:09;2.00;99.90
41668;DHT22;27356;50.920;5.350;2024-01-15T02:53:36;2.00;99.90
41668;DHT22;27356;50.920;5.350;2024-01-15T02:56:02;2.10;99.90
41668;DHT22;27356;50.920;5.350;2024-01-15T02:58:28;2.00;99.90
41668;DHT22;27356;50.920;5.350;2024-01-15T03:00:54;2.00;99.90
41668;DHT22;27356;50.920;5.350;2024-01-15T03:03:20;1.80;99.90
41668;DHT22;27356;50.920;5.350;2024-01-15T03:05:46;1.80;99.90
41668;DHT22;27356;50.920;5.350;2024-01-15T03:08:12;1.90;99.90
41668;DHT22;27356;50.920;5.350;2024-01-15T03:10:38;2.00;99.90
41668;DHT22;27356;50.920;5.350;2024-01-15T03:13:05;2.10;99.90
41668;DHT22;27356;50.920;5.350;2024-01-15T03:15:31;2.20;99.90
41668;DHT22;27356;50.920;5.350;2024-01-15T03:17:57;2.20;99.90
41668;DHT22;27356;50.920;5.350;2024-01-15T03:20:23;2.20;99.90
41668;DHT22;27356;50.920;5.350;2024-01-15T03:22:49;2.30;99.90
41668;DHT22;27356;50.920;5.350;2024-01-15T03:25:15;2.20;99.90
41668;DHT22;27356;50.920;5.350;2024-01-15T03:27:41;2.20;99.90
41668;DHT22;27356;50.920;5.350;2024-01-15T03:30:07;2.10;99.90
41668;DHT22;27356;50.920;5.350;2024-01-15T03:32:33;2.10;99.90
41668;DHT22;27356;50.920;5.350;2024-01-15T03:34:59;2.10;99.90
41668;DHT22;27356;50.920;5.350;2024-01-15T03:37:26;2.10;99.90
41668;DHT22;27356;50.920;5.350;2024-01-15T03:39:51;2.10;99.90
41668;DHT22;27356;50.920;5.350;2024-01-15T03:42:17;2.00;99.90
41668;DHT22;27356;50.920;5.350;2024-01-15T03:44:43;2.10;99.90
41668;DHT22;27356;50.920;5.350;2024-01-15T03:47:09;2.10;99.90
41668;DHT22;27356;50.920;5.350;2024-01-15T03:49:35;2.20;99.90
41668;DHT22;27356;50.920;5.350;2024-01-15T03:52:00;2.20;99.90
41668;DHT22;27356;50.920;5.350;2024-01-15T03:54:26;2.20;99.90
41668;DHT22;27356;50.920;5.350;2024-01-15T03:56:52;2.20;99.90
41668;DHT22;27356;50.920;5.350;2024-01-15T03:59:18;2.10;99.90
41668;DHT22;27356;50.920;5.350;2024-01-15T04:01:50;2.10;99.90
41668;DHT22;27356;50.920;5.350;2024-01-15T04:04:18;2.20;99.90
41668;DHT22;27356;50.920;5.350;2024-01-15T04:06:44;2.30;99.90
41668;DHT22;27356;50.920;5.350;2024-01-15T04:09:11;2.20;99.90
41668;DHT22;27356;50.920;5.350;2024-01-15T04:11:37;2.10;99.90
41668;DHT22;27356;50.920;5.350;2024-01-15T04:14:03;2.00;99.90
41668;DHT22;27356;50.920;5.350;2024-01-15T04:16:29;2.10;99.90
41668;DHT22;27356;50.920;5.350;2024-01-15T04:18:54;2.10;99.90
41668;DHT22;27356;50.920;5.350;2024-01-15T04:21:20;2.10;99.90
41668;DHT22;27356;50.920;5.350;2024-01-15T04:23:46;2.00;99.90
41668;DHT22;27356;50.920;5.350;2024-01-15T04:26:12;2.00;99.90
41668;DHT22;27356;50.920;5.350;2024-01-15T04:28:37;1.90;99.90
41668;DHT22;27356;50.920;5.350;2024-01-15T04:31:03;2.00;99.90
41668;DHT22;27356;50.920;5.350;2024-01-15T04:33:29;2.00;99.90
41668;DHT22;27356;50.920;5.350;2024-01-15T04:35:55;2.00;99.90
41668;DHT22;27356;50.920;5.350;2024-01-15T04:38:21;2.00;99.90
41668;DHT22;27356;50.920;5.350;2024-01-15T04:40:46;2.10;99.90
41668;DHT22;27356;50.920;5.350;2024-01-15T04:43:12;2.10;99.90
41668;DHT22;27356;50.920;5.350;2024-01-15T04:45:38;2.10;99.90
41668;DHT22;27356;50.920;5.350;2024-01-15T04:48:04;2.10;99.90
41668;DHT22;27356;50.920;5.350;2024-01-15T04:50:30;2.10;99.90
41668;DHT22;27356;50.920;5.350;2024-01-15T04:52:56;2.20;99.90
41668;DHT22;27356;50.920;5.350;2024-01-15T04:55:21;2.20;99.90
41668;DHT22;27356;50.920;5.350;2024-01-15T04:57:47;2.20;99.90
41668;DHT22;27356;50.920;5.350;2024-01-15T05:00:13;2.30;99.90
41668;DHT22;27356;50.920;5.350;2024-01-15T05:02:40;2.30;99.90
41668;DHT22;27356;50.920;5.350;2024-01-15T05:05:06;2.40;99.90
41668;DHT22;27356;50.920;5.350;2024-01-15T05:07:32;2.20;99.90
41668;DHT22;27356;50.920;5.350;2024-01-15T05:09:58;2.10;99.90
41668;DHT22;27356;50.920;5.350;2024-01-15T05:12:23;2.20;99.90
41668;DHT22;27356;50.920;5.350;2024-01-15T05:14:49;2.30;99.90
41668;DHT22;27356;50.920;5.350;2024-01-15T05:17:15;2.40;99.90
41668;DHT22;27356;50.920;5.350;2024-01-15T05:19:41;2.30;99.90
41668;DHT22;27356;50.920;5.350;2024-01-15T05:22:06;2.40;99.90
41668;DHT22;27356;50.920;5.350;2024-01-15T05:24:32;2.30;99.90
41668;DHT22;27356;50.920;5.350;2024-01-15T05:26:58;2.20;99.90
41668;DHT22;27356;50.920;5.350;2024-01-15T05:29:23;2.20;99.90
41668;DHT22;27356;50.920;5.350;2024-01-15T05:31:49;2.10;99.90
41668;DHT22;27356;50.920;5.350;2024-01-15T05:34:15;2.00;99.90
41668;DHT22;27356;50.920;5.350;2024-01-15T05:36:41;2.00;99.90
41668;DHT22;27356;50.920;5.350;2024-01-15T05:39:07;1.80;99.90
41668;DHT22;27356;50.920;5.350;2024-01-15T05:41:32;1.90;99.90
41668;DHT22;27356;50.920;5.350;2024-01-15T05:43:58;1.80;99.90
41668;DHT22;27356;50.920;5.350;2024-01-15T05:46:24;1.70;99.90
41668;DHT22;27356;50.920;5.350;2024-01-15T05:48:51;1.70;99.90
41668;DHT22;27356;50.920;5.350;2024-01-15T05:51:17;1.70;99.90
41668;DHT22;27356;50.920;5.350;2024-01-15T05:53:43;1.80;99.90
41668;DHT22;27356;50.920;5.350;2024-01-15T05:56:10;1.70;99.90
41668;DHT22;27356;50.920;5.350;2024-01-15T05:58:36;1.70;99.90
41668;DHT22;27356;50.920;5.350;2024-01-15T06:01:01;1.70;99.90
41668;DHT22;27356;50.920;5.350;2024-01-15T06:03:27;1.60;99.90
41668;DHT22;27356;50.920;5.350;2024-01-15T06:05:53;1.70;99.90
41668;DHT22;27356;50.920;5.350;2024-01-15T06:08:19;1.70;99.90
41668;DHT22;27356;50.920;5.350;2024-01-15T06:10:46;1.60;99.90
41668;DHT22;27356;50.920;5.350;2024-01-15T06:13:12;1.60;99.90
41668;DHT22;27356;50.920;5.350;2024-01-15T06:15:39;1.70;99.90
41668;DHT22;27356;50.920;5.350;2024-01-15T06:18:05;1.60;99.90
41668;DHT22;27356;50.920;5.350;2024-01-15T06:20:31;1.60;99.90
41668;DHT22;27356;50.920;5.350;2024-01-15T06:22:56;1.60;99.90
41668;DHT22;27356;50.920;5.350;2024-01-15T06:25:22;1.60;99.90
41668;DHT22;27356;50.920;5.350;2024-01-15T06:27:48;1.60;99.90
41668;DHT22;27356;50.920;5.350;2024-01-15T06:30:14;1.60;99.90
41668;DHT22;27356;50.920;5.350;2024-01-15T06:32:40;1.60;99.90
41668;DHT22;27356;50.920;5.350;2024-01-15T06:35:06;1.50;99.90
41668;DHT22;27356;50.920;5.350;2024-01-15T06:37:32;1.50;99.90
41668;DHT22;27356;50.920;5.350;2024-01-15T06:39:59;1.50;99.90
41668;DHT22;27356;50.920;5.350;2024-01-15T06:42:25;1.50;99.90
41668;DHT22;27356;50.920;5.350;2024-01-15T06:45:09;1.40;99.90
41668;DHT22;27356;50.920;5.350;2024-01-15T06:47:34;1.40;99.90
41668;DHT22;27356;50.920;5.350;2024-01-15T06:50:00;1.50;99.90
41668;DHT22;27356;50.920;5.350;2024-01-15T06:52:26;1.40;99.90
41668;DHT22;27356;50.920;5.350;2024-01-15T06:54:52;1.40;99.90
41668;DHT22;27356;50.920;5.350;2024-01-15T06:57:18;1.50;99.90
41668;DHT22;27356;50.920;5.350;2024-01-15T06:59:45;1.50;99.90
41668;DHT22;27356;50.920;5.350;2024-01-15T07:02:11;1.50;99.90
41668;DHT22;27356;50.920;5.350;2024-01-15T07:04:38;1.60;99.90
41668;DHT22;27356;50.920;5.350;2024-01-15T07:07:04;1.60;99.90
41668;DHT22;27356;50.920;5.350;2024-01-15T07:09:30;1.60;99.90
41668;DHT22;27356;50.920;5.350;2024-01-15T07:11:56;1.60;99.90
41668;DHT22;27356;50.920;5.350;2024-01-15T07:14:23;1.70;99.90
41668;DHT22;27356;50.920;5.350;2024-01-15T07:16:49;1.70;99.90
41668;DHT22;27356;50.920;5.350;2024-01-15T07:19:15;1.60;99.90
41668;DHT22;27356;50.920;5.350;2024-01-15T07:21:41;1.80;99.90
41668;DHT22;27356;50.920;5.350;2024-01-15T07:24:08;1.70;99.90
41668;DHT22;27356;50.920;5.350;2024-01-15T07:26:34;1.70;99.90
41668;DHT22;27356;50.920;5.350;2024-01-15T07:29:00;1.80;99.90
41668;DHT22;27356;50.920;5.350;2024-01-15T07:31:27;1.80;99.90
41668;DHT22;27356;50.920;5.350;2024-01-15T07:33:54;1.80;99.90
41668;DHT22;27356;50.920;5.350;2024-01-15T07:36:19;1.90;99.90
41668;DHT22;27356;50.920;5.350;2024-01-15T07:38:45;2.00;99.90
41668;DHT22;27356;50.920;5.350;2024-01-15T07:41:13;1.90;99.90
41668;DHT22;27356;50.920;5.350;2024-01-15T07:43:39;1.80;99.90
41668;DHT22;27356;50.920;5.350;2024-01-15T07:46:04;1.90;99.90
41668;DHT22;27356;50.920;5.350;2024-01-15T07:48:30;1.80;99.90
41668;DHT22;27356;50.920;5.350;2024-01-15T07:50:56;1.90;99.90
41668;DHT22;27356;50.920;5.350;2024-01-15T07:53:22;1.90;99.90
41668;DHT22;27356;50.920;5.350;2024-01-15T07:55:48;2.00;99.90
41668;DHT22;27356;50.920;5.350;2024-01-15T07:58:14;2.00;99.90
41668;DHT22;27356;50.920;5.350;2024-01-15T08:00:39;1.90;99.90
41668;DHT22;27356;50.920;5.350;2024-01-15T08:03:05;2.00;99.90
41668;DHT22;27356;50.920;5.350;2024-01-15T08:05:32;2.10;99.90
41668;DHT22;27356;50.920;5.350;2024-01-15T08:07:58;2.10;99.90
41668;DHT22;27356;50.920;5.350;2024-01-15T08:10:24;2.20;99.90
41668;DHT22;27356;50.920;5.350;2024-01-15T08:12:50;2.10;99.90
41668;DHT22;27356;50.920;5.350;2024-01-15T08:15:16;2.10;99.90
41668;DHT22;27356;50.920;5.350;2024-01-15T08:17:43;2.10;99.90
41668;DHT22;27356;50.920;5.350;2024-01-15T08:20:09;2.10;99.90
41668;DHT22;27356;50.920;5.350;2024-01-15T08:22:36;2.20;99.90
41668;DHT22;27356;50.920;5.350;2024-01-15T08:25:02;2.20;99.90
41668;DHT22;27356;50.920;5.350;2024-01-15T08:27:29;2.30;99.90
41668;DHT22;27356;50.920;5.350;2024-01-15T08:29:56;2.10;99.90
41668;DHT22;27356;50.920;5.350;2024-01-15T08:32:22;2.10;99.90
41668;DHT22;27356;50.920;5.350;2024-01-15T08:34:48;2.10;99.90
41668;DHT22;27356;50.920;5.350;2024-01-15T08:37:18;2.10;99.90
41668;DHT22;27356;50.920;5.350;2024-01-15T08:39:45;2.30;99.90
41668;DHT22;27356;50.920;5.350;2024-01-15T08:42:11;2.40;99.90
41668;DHT22;27356;50.920;5.350;2024-01-15T08:44:37;2.40;99.90
41668;DHT22;27356;50.920;5.350;2024-01-15T08:47:06;2.50;99.90
41668;DHT22;27356;50.920;5.350;2024-01-15T08:49:35;2.50;99.90
41668;DHT22;27356;50.920;5.350;2024-01-15T08:52:02;2.40;99.90
41668;DHT22;27356;50.920;5.350;2024-01-15T08:54:31;2.40;99.90
41668;DHT22;27356;50.920;5.350;2024-01-15T08:56:58;2.40;99.90
41668;DHT22;27356;50.920;5.350;2024-01-15T08:59:25;2.30;99.90
41668;DHT22;27356;50.920;5.350;2024-01-15T09:01:54;2.30;99.90
41668;DHT22;27356;50.920;5.350;2024-01-15T09:04:23;2.30;99.90
41668;DHT22;27356;50.920;5.350;2024-01-15T09:06:49;2.40;99.90
41668;DHT22;27356;50.920;5.350;2024-01-15T09:09:16;2.40;99.90
41668;DHT22;27356;50.920;5.350;2024-01-15T09:11:42;2.50;99.90
41668;DHT22;27356;50.920;5.350;2024-01-15T09:14:08;2.50;99.90
41668;DHT22;27356;50.920;5.350;2024-01-15T09:16:35;2.50;99.90
41668;DHT22;27356;50.920;5.350;2024-01-15T09:19:01;2.30;99.90
41668;DHT22;27356;50.920;5.350;2024-01-15T09:21:27;2.30;99.90
41668;DHT22;27356;50.920;5.350;2024-01-15T09:23:53;2.30;99.90
41668;DHT22;27356;50.920;5.350;2024-01-15T09:26:20;2.40;99.90
41668;DHT22;27356;50.920;5.350;2024-01-15T09:28:48;2.40;99.90
41668;DHT22;27356;50.920;5.350;2024-01-15T09:31:15;2.50;99.90
41668;DHT22;27356;50.920;5.350;2024-01-15T09:33:43;2.40;99.90
41668;DHT22;27356;50.920;5.350;2024-01-15T09:36:09;2.40;99.90
41668;DHT22;27356;50.920;5.350;2024-01-15T09:38:35;2.30;99.90
41668;DHT22;27356;50.920;5.350;2024-01-15T09:41:02;2.40;99.90
41668;DHT22;27356;50.920;5.350;2024-01-15T09:43:28;2.30;99.90
41668;DHT22;27356;50.920;5.350;2024-01-15T09:45:54;2.30;99.90
41668;DHT22;27356;50.920;5.350;2024-01-15T09:48:20;2.40;99.90
41668;DHT22;27356;50.920;5.350;2024-01-15T09:50:49;2.40;99.90
41668;DHT22;27356;50.920;5.350;2024-01-15T09:53:16;2.40;99.90
41668;DHT22;27356;50.920;5.350;2024-01-15T09:55:42;2.60;99.90
41668;DHT22;27356;50.920;5.350;2024-01-15T09:58:08;2.70;99.90
41668;DHT22;27356;50.920;5.350;2024-01-15T10:00:35;2.70;99.90
41668;DHT22;27356;50.920;5.350;2024-01-15T10:03:05;2.80;99.90
41668;DHT22;27356;50.920;5.350;2024-01-15T10:05:32;2.90;99.90
41668;DHT22;27356;50.920;5.350;2024-01-15T10:08:01;2.90;99.90
41668;DHT22;27356;50.920;5.350;2024-01-15T10:10:27;2.90;99.90
41668;DHT22;27356;50.920;5.350;2024-01-15T10:12:54;3.10;99.90
41668;DHT22;27356;50.920;5.350;2024-01-15T10:15:23;3.00;99.90
41668;DHT22;27356;50.920;5.350;2024-01-15T10:17:50;3.10;99.90
41668;DHT22;27356;50.920;5.350;2024-01-15T10:20:16;3.00;99.90
41668;DHT22;27356;50.920;5.350;2024-01-15T10:22:43;3.20;99.90
41668;DHT22;27356;50.920;5.350;2024-01-15T10:25:13;3.20;99.90
41668;DHT22;27356;50.920;5.350;2024-01-15T10:27:41;3.10;99.90
41668;DHT22;27356;50.920;5.350;2024-01-15T10:30:08;3.20;99.90
41668;DHT22;27356;50.920;5.350;2024-01-15T10:32:34;3.20;99.90
41668;DHT22;27356;50.920;5.350;2024-01-15T10:35:00;3.20;99.90
41668;DHT22;27356;50.920;5.350;2024-01-15T10:37:26;3.10;99.90
41668;DHT22;27356;50.920;5.350;2024-01-15T10:39:52;3.10;99.90
41668;DHT22;27356;50.920;5.350;2024-01-15T10:42:18;3.30;99.90
41668;DHT22;27356;50.920;5.350;2024-01-15T10:44:45;3.30;99.90
41668;DHT22;27356;50.920;5.350;2024-01-15T10:47:14;3.30;99.90
41668;DHT22;27356;50.920;5.350;2024-01-15T10:49:41;3.40;99.90
41668;DHT22;27356;50.920;5.350;2024-01-15T10:52:07;3.30;99.90
41668;DHT22;27356;50.920;5.350;2024-01-15T10:54:34;3.20;99.90
41668;DHT22;27356;50.920;5.350;2024-01-15T10:57:05;3.10;99.90
41668;DHT22;27356;50.920;5.350;2024-01-15T10:59:33;3.20;99.90
41668;DHT22;27356;50.920;5.350;2024-01-15T11:01:59;3.30;99.90
41668;DHT22;27356;50.920;5.350;2024-01-15T11:04:25;3.40;99.90
41668;DHT22;27356;50.920;5.350;2024-01-15T11:06:54;3.40;99.90
41668;DHT22;27356;50.920;5.350;2024-01-15T11:09:21;3.50;99.90
41668;DHT22;27356;50.920;5.350;2024-01-15T11:11:47;3.80;99.90
41668;DHT22;27356;50.920;5.350;2024-01-15T11:14:34;3.90;99.90
41668;DHT22;27356;50.920;5.350;2024-01-15T11:17:00;4.10;99.90
41668;DHT22;27356;50.920;5.350;2024-01-15T11:19:26;4.40;99.90
41668;DHT22;27356;50.920;5.350;2024-01-15T11:22:01;4.60;99.90
41668;DHT22;27356;50.920;5.350;2024-01-15T11:24:40;4.70;99.90
41668;DHT22;27356;50.920;5.350;2024-01-15T11:27:07;4.70;99.90
41668;DHT22;27356;50.920;5.350;2024-01-15T11:29:35;4.70;99.90
41668;DHT22;27356;50.920;5.350;2024-01-15T11:32:08;4.60;99.90
41668;DHT22;27356;50.920;5.350;2024-01-15T11:34:56;4.50;99.90
41668;DHT22;27356;50.920;5.350;2024-01-15T11:37:25;4.50;99.90
41668;DHT22;27356;50.920;5.350;2024-01-15T11:39:52;4.40;99.90
41668;DHT22;27356;50.920;5.350;2024-01-15T11:42:20;4.40;99.90
41668;DHT22;27356;50.920;5.350;2024-01-15T11:44:47;4.10;99.90
41668;DHT22;27356;50.920;5.350;2024-01-15T11:47:13;3.60;99.90
41668;DHT22;27356;50.920;5.350;2024-01-15T11:50:01;3.60;99.90
41668;DHT22;27356;50.920;5.350;2024-01-15T11:52:38;3.40;99.90
41668;DHT22;27356;50.920;5.350;2024-01-15T11:55:41;3.10;99.90
41668;DHT22;27356;50.920;5.350;2024-01-15T11:58:10;2.80;99.90
41668;DHT22;27356;50.920;5.350;2024-01-15T12:00:40;2.80;99.90
41668;DHT22;27356;50.920;5.350;2024-01-15T12:03:07;2.60;99.90
41668;DHT22;27356;50.920;5.350;2024-01-15T12:05:37;2.60;99.90
41668;DHT22;27356;50.920;5.350;2024-01-15T12:08:03;2.60;99.90
41668;DHT22;27356;50.920;5.350;2024-01-15T12:10:36;2.50;99.90
41668;DHT22;27356;50.920;5.350;2024-01-15T12:13:11;2.50;99.90
41668;DHT22;27356;50.920;5.350;2024-01-15T12:15:38;2.50;99.90
41668;DHT22;27356;50.920;5.350;2024-01-15T12:18:08;2.50;99.90
41668;DHT22;27356;50.920;5.350;2024-01-15T12:20:34;2.40;99.90
41668;DHT22;27356;50.920;5.350;2024-01-15T12:23:01;2.40;99.90
41668;DHT22;27356;50.920;5.350;2024-01-15T12:25:32;2.40;99.90
41668;DHT22;27356;50.920;5.350;2024-01-15T12:27:59;2.40;99.90
41668;DHT22;27356;50.920;5.350;2024-01-15T12:30:27;2.50;99.90
41668;DHT22;27356;50.920;5.350;2024-01-15T12:32:53;2.50;99.90
41668;DHT22;27356;50.920;5.350;2024-01-15T12:35:19;2.40;99.90
41668;DHT22;27356;50.920;5.350;2024-01-15T12:37:44;2.10;99.90
41668;DHT22;27356;50.920;5.350;2024-01-15T12:40:14;2.00;99.90
41668;DHT22;27356;50.920;5.350;2024-01-15T12:42:44;2.00;99.90
41668;DHT22;27356;50.920;5.350;2024-01-15T12:45:11;2.20;99.90
41668;DHT22;27356;50.920;5.350;2024-01-15T12:47:37;2.20;99.90
41668;DHT22;27356;50.920;5.350;2024-01-15T12:50:07;2.30;99.90
41668;DHT22;27356;50.920;5.350;2024-01-15T12:52:35;2.40;99.90
41668;DHT22;27356;50.920;5.350;2024-01-15T12:55:05;2.40;99.90
41668;DHT22;27356;50.920;5.350;2024-01-15T12:57:31;2.50;99.90
41668;DHT22;27356;50.920;5.350;2024-01-15T12:59:58;2.60;99.90
41668;DHT22;27356;50.920;5.350;2024-01-15T13:02:24;2.60;99.90
41668;DHT22;27356;50.920;5.350;2024-01-15T13:04:50;2.60;99.90
41668;DHT22;27356;50.920;5.350;2024-01-15T13:07:16;2.70;99.90
41668;DHT22;27356;50.920;5.350;2024-01-15T13:09:42;2.80;99.90
41668;DHT22;27356;50.920;5.350;2024-01-15T13:12:09;2.90;99.90
41668;DHT22;27356;50.920;5.350;2024-01-15T13:14:35;2.70;99.90
41668;DHT22;27356;50.920;5.350;2024-01-15T13:17:02;2.70;99.90
41668;DHT22;27356;50.920;5.350;2024-01-15T13:19:29;2.80;99.90
41668;DHT22;27356;50.920;5.350;2024-01-15T13:21:55;2.80;99.90
41668;DHT22;27356;50.920;5.350;2024-01-15T13:24:24;2.70;99.90
41668;DHT22;27356;50.920;5.350;2024-01-15T13:26:50;2.60;99.90
41668;DHT22;27356;50.920;5.350;2024-01-15T13:29:15;2.60;99.90
41668;DHT22;27356;50.920;5.350;2024-01-15T13:31:41;2.60;99.90
41668;DHT22;27356;50.920;5.350;2024-01-15T13:34:08;2.50;99.90
41668;DHT22;27356;50.920;5.350;2024-01-15T13:36:35;2.70;99.90
41668;DHT22;27356;50.920;5.350;2024-01-15T13:39:00;2.70;99.90
41668;DHT22;27356;50.920;5.350;2024-01-15T13:41:26;2.70;99.90
41668;DHT22;27356;50.920;5.350;2024-01-15T13:43:54;2.80;99.90
41668;DHT22;27356;50.920;5.350;2024-01-15T13:46:24;2.70;99.90
41668;DHT22;27356;50.920;5.350;2024-01-15T13:48:52;2.80;99.90
41668;DHT22;27356;50.920;5.350;2024-01-15T13:51:19;2.80;99.90
41668;DHT22;27356;50.920;5.350;2024-01-15T13:53:45;2.90;99.90
41668;DHT22;27356;50.920;5.350;2024-01-15T13:56:11;2.90;99.90
41668;DHT22;27356;50.920;5.350;2024-01-15T13:58:38;2.90;99.90
41668;DHT22;27356;50.920;5.350;2024-01-15T14:01:04;3.00;99.90
41668;DHT22;27356;50.920;5.350;2024-01-15T14:03:32;3.00;99.90
41668;DHT22;27356;50.920;5.350;2024-01-15T14:05:58;2.90;99.90
41668;DHT22;27356;50.920;5.350;2024-01-15T14:08:24;2.90;99.90
41668;DHT22;27356;50.920;5.350;2024-01-15T14:10:50;2.90;99.90
41668;DHT22;27356;50.920;5.350;2024-01-15T14:13:15;2.90;99.90
41668;DHT22;27356;50.920;5.350;2024-01-15T14:15:41;2.70;99.90
41668;DHT22;27356;50.920;5.350;2024-01-15T14:18:07;2.70;99.90
41668;DHT22;27356;50.920;5.350;2024-01-15T14:20:33;2.80;99.90
41668;DHT22;27356;50.920;5.350;2024-01-15T14:22:59;2.80;99.90
41668;DHT22;27356;50.920;5.350;2024-01-15T14:25:24;2.80;99.90
41668;DHT22;27356;50.920;5.350;2024-01-15T14:27:50;2.80;99.90
41668;DHT22;27356;50.920;5.350;2024-01-15T14:30:16;2.90;99.90
41668;DHT22;27356;50.920;5.350;2024-01-15T14:32:43;2.90;99.90
41668;DHT22;27356;50.920;5.350;2024-01-15T14:35:09;2.90;99.90
41668;DHT22;27356;50.920;5.350;2024-01-15T14:37:39;3.00;99.90
41668;DHT22;27356;50.920;5.350;2024-01-15T14:40:06;2.90;99.90
41668;DHT22;27356;50.920;5.350;2024-01-15T14:42:33;2.70;99.90
41668;DHT22;27356;50.920;5.350;2024-01-15T14:44:59;2.60;99.90
41668;DHT22;27356;50.920;5.350;2024-01-15T14:47:26;2.50;99.90
41668;DHT22;27356;50.920;5.350;2024-01-15T14:49:53;2.50;99.90
41668;DHT22;27356;50.920;5.350;2024-01-15T14:52:20;2.40;99.90
41668;DHT22;27356;50.920;5.350;2024-01-15T14:54:45;2.30;99.90
41668;DHT22;27356;50.920;5.350;2024-01-15T14:57:13;2.20;99.90
41668;DHT22;27356;50.920;5.350;2024-01-15T14:59:39;2.20;99.90
41668;DHT22;27356;50.920;5.350;2024-01-15T15:02:06;2.10;99.90
41668;DHT22;27356;50.920;5.350;2024-01-15T15:04:32;2.20;99.90
41668;DHT22;27356;50.920;5.350;2024-01-15T15:06:58;2.30;99.90
41668;DHT22;27356;50.920;5.350;2024-01-15T15:09:24;2.30;99.90
41668;DHT22;27356;50.920;5.350;2024-01-15T15:11:49;2.50;99.90
41668;DHT22;27356;50.920;5.350;2024-01-15T15:14:17;2.60;99.90
41668;DHT22;27356;50.920;5.350;2024-01-15T15:16:43;2.60;99.90
41668;DHT22;27356;50.920;5.350;2024-01-15T15:19:09;2.50;99.90
41668;DHT22;27356;50.920;5.350;2024-01-15T15:21:35;2.60;99.90
41668;DHT22;27356;50.920;5.350;2024-01-15T15:24:01;2.60;99.90
41668;DHT22;27356;50.920;5.350;2024-01-15T15:26:27;2.60;99.90
41668;DHT22;27356;50.920;5.350;2024-01-15T15:28:53;2.60;99.90
41668;DHT22;27356;50.920;5.350;2024-01-15T15:31:19;2.60;99.90
41668;DHT22;27356;50.920;5.350;2024-01-15T15:33:45;2.60;99.90
41668;DHT22;27356;50.920;5.350;2024-01-15T15:36:11;2.50;99.90
41668;DHT22;27356;50.920;5.350;2024-01-15T15:38:37;2.40;99.90
41668;DHT22;27356;50.920;5.350;2024-01-15T15:41:03;2.20;99.90